KGYR/GYR METAR and TAF weather

Enter ICAO airport designator
Station Type Date Time Source
KGYR METAR 2020/09/20 03:47 UTC NOAA

KGYR 200347Z 00000KT 10SM SKC 33/06 A2978 RMK LAST


Station Type Date Time Source
KGYR Decoded METAR 2020/09/20 03:47 UTC NOAA

Goodyear Municipal, AZ, United States (KGYR) 33-25N 112-23W
Sep 19, 2020 - 11:47 PM EDT / 2020.09.20 0347 UTC
Wind: Calm:0
Visibility: 10 mile(s):0
Sky conditions: clear
Temperature: 91 F (33 C)
Dew Point: 42 F (6 C)
Relative Humidity: 18%
Pressure (altimeter): 29.78 in. Hg (1008 hPa)
ob: KGYR 200347Z 00000KT 10SM SKC 33/06 A2978 RMK LAST
cycle: 4

Station Type Date Time Source
KGYR TAF UTC NOAA

Error!

Example: see airport list